Time;durP1;ratioP1;P1;durP2;ratioP2;P2;SDS_P1;SDS_P2;PMS_P1;PMS_P2;Temp;Humidity;BMP_temperature;BMP_pressure;BME280_temperature;BME280_humidity;BME280_pressure;Samples;Min_cycle;Max_cycle;Signal;HPM_P1;HPM_P2
2021/04/24 00:02:13;;;;;;;5.72;3.47;;;3.20;99.90;;;;;;5009811;28;20169;-75
2021/04/24 00:04:39;;;;;;;6.68;3.63;;;3.20;99.90;;;;;;4993996;28;20470;-75
2021/04/24 00:07:09;;;;;;;5.28;3.17;;;3.20;99.90;;;;;;4971374;28;20098;-75
2021/04/24 00:09:36;;;;;;;5.65;3.40;;;3.20;99.90;;;;;;4990448;28;20079;-75
2021/04/24 00:12:02;;;;;;;6.78;3.53;;;3.10;99.90;;;;;;4974472;28;20067;-75
2021/04/24 00:14:28;;;;;;;7.57;3.28;;;3.10;99.90;;;;;;4989938;28;20089;-75
2021/04/24 00:16:54;;;;;;;5.45;3.55;;;3.10;99.90;;;;;;4974765;28;20489;-75
2021/04/24 00:19:19;;;;;;;7.10;3.95;;;3.10;99.90;;;;;;4996323;28;20094;-75
2021/04/24 00:21:45;;;;;;;5.10;2.63;;;3.10;99.90;;;;;;4988892;28;20552;-75
2021/04/24 00:24:11;;;;;;;5.93;3.60;;;3.10;99.90;;;;;;4980346;28;20134;-75
2021/04/24 00:26:37;;;;;;;5.75;3.35;;;3.10;99.90;;;;;;4971287;28;20440;-75
2021/04/24 00:29:03;;;;;;;6.93;2.92;;;3.10;99.90;;;;;;4999296;28;20170;-75
2021/04/24 00:31:29;;;;;;;6.28;3.25;;;3.10;99.90;;;;;;4998571;28;20150;-75
2021/04/24 00:33:54;;;;;;;5.40;4.07;;;2.90;99.90;;;;;;4989569;28;20166;-75
2021/04/24 00:36:20;;;;;;;5.68;3.17;;;3.00;99.90;;;;;;4989283;28;20141;-75
2021/04/24 00:38:45;;;;;;;4.95;3.17;;;3.00;99.90;;;;;;4986680;28;20539;-75
2021/04/24 00:41:11;;;;;;;3.83;2.83;;;3.00;99.90;;;;;;4993405;28;20083;-75
2021/04/24 00:43:37;;;;;;;6.25;3.38;;;2.90;99.90;;;;;;5002487;28;20098;-75
2021/04/24 00:46:13;;;;;;;6.30;3.47;;;2.90;99.90;;;;;;4995783;28;20100;-75
2021/04/24 00:48:39;;;;;;;7.82;3.83;;;2.90;99.90;;;;;;4989894;28;20067;-75
2021/04/24 00:51:06;;;;;;;7.82;4.45;;;2.70;99.90;;;;;;4975295;28;20085;-75
2021/04/24 00:53:32;;;;;;;5.93;3.92;;;2.70;99.90;;;;;;4995981;28;20177;-75
2021/04/24 00:55:58;;;;;;;8.68;4.22;;;2.70;99.90;;;;;;4994304;28;20698;-75
2021/04/24 00:58:25;;;;;;;6.93;3.20;;;2.80;99.90;;;;;;4993347;28;20079;-75
2021/04/24 01:00:50;;;;;;;5.57;3.72;;;2.70;99.90;;;;;;4995968;28;20070;-75
2021/04/24 01:03:16;;;;;;;5.68;3.08;;;2.70;99.90;;;;;;4990398;28;20466;-75
2021/04/24 01:05:43;;;;;;;6.50;3.35;;;2.70;99.90;;;;;;5007391;28;20113;-75
2021/04/24 01:08:09;;;;;;;5.20;3.17;;;2.70;99.90;;;;;;4997638;28;20518;-76
2021/04/24 01:10:43;;;;;;;5.95;3.50;;;2.70;99.90;;;;;;4992075;28;20466;-75
2021/04/24 01:13:09;;;;;;;7.25;3.88;;;2.60;99.90;;;;;;4994164;28;20458;-75
2021/04/24 01:15:36;;;;;;;5.45;3.72;;;2.60;99.90;;;;;;4991867;28;20113;-75
2021/04/24 01:18:04;;;;;;;6.55;3.80;;;2.50;99.90;;;;;;5014442;28;20129;-75
2021/04/24 01:20:32;;;;;;;6.15;4.10;;;2.50;99.90;;;;;;5022675;28;20086;-75
2021/04/24 01:22:58;;;;;;;5.75;3.05;;;2.50;99.90;;;;;;4997146;28;20106;-75
2021/04/24 01:25:26;;;;;;;5.72;3.25;;;2.60;99.90;;;;;;4994288;28;20071;-75
2021/04/24 01:27:54;;;;;;;4.75;3.50;;;2.50;99.90;;;;;;4996026;28;20079;-75
2021/04/24 01:30:27;;;;;;;11.02;4.20;;;2.60;99.90;;;;;;4994979;28;20101;-75
2021/04/24 01:32:53;;;;;;;9.65;3.17;;;2.50;99.90;;;;;;4996715;28;20543;-75
2021/04/24 01:35:22;;;;;;;5.07;2.95;;;2.60;99.90;;;;;;5008700;28;20079;-75
2021/04/24 01:37:47;;;;;;;6.82;3.60;;;2.50;99.90;;;;;;5011891;28;20074;-75
2021/04/24 01:40:14;;;;;;;6.82;3.85;;;2.50;99.90;;;;;;4997561;28;20070;-75
2021/04/24 01:42:42;;;;;;;7.00;4.05;;;2.50;99.90;;;;;;5005736;28;20141;-75
2021/04/24 01:45:09;;;;;;;8.77;4.43;;;2.60;99.90;;;;;;4994224;28;20070;-75
2021/04/24 01:47:36;;;;;;;8.32;3.53;;;2.50;99.90;;;;;;5002705;28;20078;-75
2021/04/24 01:50:09;;;;;;;9.93;4.90;;;2.30;99.90;;;;;;4992200;28;20547;-75
2021/04/24 01:52:36;;;;;;;6.07;3.70;;;2.40;99.90;;;;;;5005770;28;20175;-75
2021/04/24 01:55:06;;;;;;;9.30;4.55;;;2.50;99.90;;;;;;4992906;28;20078;-75
2021/04/24 01:57:31;;;;;;;7.20;3.40;;;2.50;99.90;;;;;;4995851;28;20094;-75
2021/04/24 01:59:57;;;;;;;5.15;3.45;;;2.30;99.90;;;;;;4996036;28;20078;-75
2021/04/24 02:02:24;;;;;;;8.60;3.60;;;2.30;99.90;;;;;;4992047;28;20078;-74
2021/04/24 02:04:50;;;;;;;5.47;3.78;;;2.30;99.90;;;;;;4990629;28;20126;-75
2021/04/24 02:07:16;;;;;;;8.95;4.30;;;2.30;99.90;;;;;;4994545;28;20722;-75
2021/04/24 02:09:41;;;;;;;6.78;3.78;;;2.40;99.90;;;;;;5001954;28;20079;-75
2021/04/24 02:12:09;;;;;;;6.45;3.35;;;2.40;99.90;;;;;;4986404;28;20419;-75
2021/04/24 02:14:43;;;;;;;5.22;3.67;;;2.40;99.90;;;;;;4998157;28;20082;-76
2021/04/24 02:17:14;;;;;;;10.00;4.10;;;2.40;99.90;;;;;;4992163;28;20236;-76
2021/04/24 02:19:41;;;;;;;4.85;3.20;;;2.40;99.90;;;;;;4991804;28;20115;-74
2021/04/24 02:22:11;;;;;;;7.70;4.03;;;2.40;99.90;;;;;;4992774;28;20850;-75
2021/04/24 02:24:50;;;;;;;8.02;3.72;;;2.50;99.90;;;;;;4993011;28;20106;-75
2021/04/24 02:27:15;;;;;;;6.53;3.65;;;2.40;99.90;;;;;;4974817;28;20098;-75
2021/04/24 02:29:43;;;;;;;7.20;3.20;;;2.50;99.90;;;;;;4983516;28;20074;-75
2021/04/24 02:32:10;;;;;;;7.13;3.80;;;2.50;99.90;;;;;;4991613;28;20482;-75
2021/04/24 02:34:41;;;;;;;7.85;3.47;;;2.50;99.90;;;;;;4996910;28;20078;-75
2021/04/24 02:37:08;;;;;;;8.30;3.47;;;2.40;99.90;;;;;;4973557;28;20121;-74
2021/04/24 02:39:36;;;;;;;6.80;3.70;;;2.30;99.90;;;;;;4996247;28;20161;-75
2021/04/24 02:42:04;;;;;;;6.68;3.42;;;2.30;99.90;;;;;;5011430;28;20094;-75
2021/04/24 02:44:30;;;;;;;5.88;3.70;;;2.30;99.90;;;;;;5000552;28;20098;-75
2021/04/24 02:46:57;;;;;;;10.07;3.92;;;2.30;99.90;;;;;;5011414;28;20497;-74
2021/04/24 02:49:23;;;;;;;6.20;3.67;;;2.20;99.90;;;;;;5003913;28;20100;-75
2021/04/24 02:51:48;;;;;;;7.65;4.05;;;2.30;99.90;;;;;;4992052;28;20070;-75
2021/04/24 02:54:14;;;;;;;8.55;3.63;;;2.20;99.90;;;;;;5000901;28;20573;-74
2021/04/24 02:56:39;;;;;;;9.25;3.80;;;2.10;99.90;;;;;;4998171;28;20454;-74
2021/04/24 02:59:05;;;;;;;5.22;3.03;;;2.20;99.90;;;;;;5010031;28;20086;-74
2021/04/24 03:01:31;;;;;;;8.85;3.30;;;2.10;99.90;;;;;;4998142;28;20165;-75
2021/04/24 03:03:57;;;;;;;4.32;3.22;;;2.10;99.90;;;;;;5001897;28;20091;-75
2021/04/24 03:06:23;;;;;;;6.60;3.75;;;2.20;99.90;;;;;;4991351;28;20091;-76
2021/04/24 03:08:48;;;;;;;7.90;3.88;;;2.20;99.90;;;;;;5004747;28;20093;-75
2021/04/24 03:11:14;;;;;;;6.97;4.55;;;2.10;99.90;;;;;;5010315;28;20094;-76
2021/04/24 03:13:39;;;;;;;7.15;3.75;;;2.20;99.90;;;;;;5002134;28;20089;-75
2021/04/24 03:16:05;;;;;;;4.72;3.30;;;2.10;99.90;;;;;;4996373;28;20095;-75
2021/04/24 03:18:31;;;;;;;7.28;3.88;;;2.20;99.90;;;;;;4990246;28;20479;-75
2021/04/24 03:20:56;;;;;;;7.03;3.33;;;2.10;99.90;;;;;;4992130;28;20083;-75
2021/04/24 03:23:22;;;;;;;6.53;3.65;;;2.10;99.90;;;;;;5002079;28;20098;-75
2021/04/24 03:25:47;;;;;;;6.53;4.13;;;1.90;99.90;;;;;;4997067;28;20559;-75
2021/04/24 03:28:13;;;;;;;10.25;3.80;;;1.90;99.90;;;;;;4990088;28;20090;-74
2021/04/24 03:30:38;;;;;;;6.00;3.70;;;1.90;99.90;;;;;;4990322;28;20154;-75
2021/04/24 03:33:04;;;;;;;5.03;3.67;;;1.80;99.90;;;;;;4990571;28;20083;-75
2021/04/24 03:35:29;;;;;;;8.32;3.50;;;1.60;99.90;;;;;;4972426;28;20110;-75
2021/04/24 03:37:55;;;;;;;6.72;3.95;;;1.70;99.90;;;;;;4990856;28;20083;-75
2021/04/24 03:40:21;;;;;;;5.70;3.58;;;1.80;99.90;;;;;;4996897;28;20082;-75
2021/04/24 03:42:46;;;;;;;7.05;3.58;;;1.80;99.90;;;;;;4997108;28;20078;-75
2021/04/24 03:45:19;;;;;;;6.93;4.07;;;1.70;99.90;;;;;;4986493;28;20097;-75
2021/04/24 03:47:51;;;;;;;6.30;3.70;;;1.80;99.90;;;;;;4989481;28;20094;-75
2021/04/24 03:50:18;;;;;;;6.28;4.47;;;1.80;99.90;;;;;;4990504;28;20082;-75
2021/04/24 03:52:44;;;;;;;5.55;3.47;;;1.90;99.90;;;;;;4991962;28;20082;-75
2021/04/24 03:55:11;;;;;;;8.07;3.90;;;1.90;99.90;;;;;;4990336;28;20092;-75
2021/04/24 03:57:36;;;;;;;5.72;3.70;;;1.90;99.90;;;;;;4989970;28;20129;-75
2021/04/24 04:00:05;;;;;;;6.97;4.20;;;1.80;99.90;;;;;;4988775;28;20166;-75
2021/04/24 04:02:50;;;;;;;9.57;4.63;;;1.80;99.90;;;;;;4989363;28;20086;-75
2021/04/24 04:05:18;;;;;;;8.60;4.30;;;1.70;99.90;;;;;;4993566;28;20078;-75
2021/04/24 04:07:45;;;;;;;6.20;3.40;;;1.70;99.90;;;;;;4994136;28;20494;-75
2021/04/24 04:10:12;;;;;;;6.60;4.47;;;1.80;99.90;;;;;;4991320;28;20597;-75
2021/04/24 04:12:38;;;;;;;6.55;3.90;;;1.70;99.90;;;;;;4993975;28;20067;-76
2021/04/24 04:15:06;;;;;;;9.18;4.50;;;1.70;99.90;;;;;;4989714;28;20523;-74
2021/04/24 04:17:31;;;;;;;7.45;3.97;;;1.80;99.90;;;;;;4990134;28;20118;-74
2021/04/24 04:19:57;;;;;;;10.95;4.18;;;1.70;99.90;;;;;;4989837;28;20516;-75
2021/04/24 04:22:23;;;;;;;7.25;3.88;;;1.70;99.90;;;;;;4990740;28;20070;-75
2021/04/24 04:24:49;;;;;;;8.10;3.60;;;1.60;99.90;;;;;;4995279;28;20087;-75
2021/04/24 04:27:14;;;;;;;5.80;3.13;;;1.60;99.90;;;;;;4989128;28;20171;-74
2021/04/24 04:29:40;;;;;;;6.38;3.60;;;1.70;99.90;;;;;;4974166;28;20101;-75
2021/04/24 04:32:05;;;;;;;8.05;3.88;;;1.80;99.90;;;;;;4988851;28;20074;-74
2021/04/24 04:34:32;;;;;;;8.55;3.92;;;1.70;99.90;;;;;;4989065;28;20114;-75
2021/04/24 04:36:57;;;;;;;7.15;3.75;;;1.70;99.90;;;;;;4990318;28;20106;-75
2021/04/24 04:39:23;;;;;;;7.20;4.03;;;1.60;99.90;;;;;;4990113;28;20085;-74
2021/04/24 04:41:48;;;;;;;8.25;3.95;;;1.70;99.90;;;;;;4989699;28;20085;-75
2021/04/24 04:44:14;;;;;;;6.40;3.88;;;1.60;99.90;;;;;;4999336;28;20143;-75
2021/04/24 04:46:39;;;;;;;7.40;3.67;;;1.60;99.90;;;;;;4988392;28;20090;-75
2021/04/24 04:49:05;;;;;;;6.85;4.13;;;1.70;99.90;;;;;;4973727;28;20141;-75
2021/04/24 04:51:30;;;;;;;8.32;4.35;;;1.70;99.90;;;;;;4991703;28;20078;-75
2021/04/24 04:53:56;;;;;;;7.28;3.85;;;1.80;99.90;;;;;;4989138;28;20138;-74
2021/04/24 04:56:21;;;;;;;10.68;5.38;;;1.80;99.90;;;;;;4999827;28;20942;-74
2021/04/24 04:58:49;;;;;;;7.50;4.32;;;1.80;99.90;;;;;;5011243;28;20087;-75
2021/04/24 05:01:14;;;;;;;7.97;4.63;;;1.90;99.90;;;;;;4993323;28;20102;-74
2021/04/24 05:03:40;;;;;;;5.82;3.55;;;1.90;99.90;;;;;;4993169;28;20119;-75
2021/04/24 05:06:06;;;;;;;6.35;3.75;;;2.00;99.90;;;;;;4992943;28;20140;-74
2021/04/24 05:08:35;;;;;;;7.10;4.38;;;2.10;99.90;;;;;;4993489;28;20063;-75
2021/04/24 05:11:00;;;;;;;8.20;3.90;;;2.20;99.90;;;;;;4981167;28;20506;-75
2021/04/24 05:13:26;;;;;;;6.97;4.43;;;2.20;99.90;;;;;;5002392;28;20162;-75
2021/04/24 05:15:52;;;;;;;5.05;3.38;;;2.20;99.90;;;;;;4991998;28;20122;-74
2021/04/24 05:18:20;;;;;;;8.85;4.00;;;2.30;99.90;;;;;;5004455;28;20081;-75
2021/04/24 05:20:45;;;;;;;7.38;3.95;;;2.40;99.90;;;;;;4993042;28;20154;-75
2021/04/24 05:23:11;;;;;;;7.53;3.30;;;2.50;99.90;;;;;;4976160;28;20079;-75
2021/04/24 05:25:36;;;;;;;6.43;3.90;;;2.50;99.90;;;;;;4993248;28;20136;-75
2021/04/24 05:28:02;;;;;;;5.78;3.40;;;2.40;99.90;;;;;;4974890;28;20071;-74
2021/04/24 05:30:28;;;;;;;7.03;4.95;;;2.50;99.90;;;;;;4999830;28;20109;-75
2021/04/24 05:32:54;;;;;;;9.65;4.03;;;2.60;99.90;;;;;;5000564;28;20090;-75
2021/04/24 05:35:20;;;;;;;9.35;4.10;;;2.60;99.90;;;;;;4994663;28;20073;-74
2021/04/24 05:37:46;;;;;;;6.85;4.13;;;2.70;99.90;;;;;;5003879;28;20466;-75
2021/04/24 05:40:12;;;;;;;6.78;4.38;;;2.90;99.90;;;;;;4993352;28;20075;-75
2021/04/24 05:42:38;;;;;;;8.80;4.28;;;3.00;99.90;;;;;;5007537;28;20165;-75
2021/04/24 05:45:10;;;;;;;9.63;4.20;;;3.10;99.90;;;;;;5005304;28;20532;-74
2021/04/24 05:47:40;;;;;;;7.65;4.43;;;3.20;99.90;;;;;;4993788;28;20074;-75
2021/04/24 05:50:07;;;;;;;8.38;4.97;;;3.30;99.90;;;;;;4998544;28;20078;-75
2021/04/24 05:52:33;;;;;;;7.35;4.30;;;3.60;99.90;;;;;;4993041;28;20601;-74
2021/04/24 05:54:59;;;;;;;8.23;4.32;;;3.70;99.90;;;;;;4991355;28;20481;-75
2021/04/24 05:57:25;;;;;;;9.73;4.60;;;4.00;99.90;;;;;;5000161;28;20086;-74
2021/04/24 05:59:50;;;;;;;7.35;4.35;;;4.10;99.90;;;;;;5004181;28;20500;-75
2021/04/24 06:02:16;;;;;;;7.53;4.32;;;4.20;99.90;;;;;;4985933;28;20495;-74
2021/04/24 06:04:42;;;;;;;7.95;4.13;;;4.20;99.90;;;;;;4977697;28;20610;-74
2021/04/24 06:07:07;;;;;;;14.77;5.80;;;4.40;99.90;;;;;;4997034;28;20121;-74
2021/04/24 06:09:34;;;;;;;8.88;3.88;;;4.70;99.90;;;;;;5001524;28;20074;-75
2021/04/24 06:12:00;;;;;;;11.00;3.92;;;4.70;99.90;;;;;;4999485;28;20141;-75
2021/04/24 06:14:26;;;;;;;6.95;4.30;;;4.80;99.90;;;;;;5009815;28;20543;-75
2021/04/24 06:16:51;;;;;;;8.70;4.25;;;4.80;99.90;;;;;;5004519;28;20094;-75
2021/04/24 06:19:18;;;;;;;8.30;4.47;;;4.90;99.90;;;;;;4992050;28;20471;-76
2021/04/24 06:21:43;;;;;;;7.00;4.82;;;5.00;99.90;;;;;;4994739;28;20100;-76
2021/04/24 06:24:09;;;;;;;6.40;4.32;;;5.10;99.90;;;;;;4999726;28;20551;-75
2021/04/24 06:26:35;;;;;;;6.70;3.72;;;5.30;99.90;;;;;;5002974;28;20531;-76
2021/04/24 06:29:00;;;;;;;8.60;5.65;;;5.50;99.90;;;;;;4991446;28;20066;-75
2021/04/24 06:31:26;;;;;;;13.90;5.93;;;5.70;99.90;;;;;;4993391;28;20177;-76
2021/04/24 06:33:51;;;;;;;14.48;7.57;;;5.80;99.90;;;;;;4993746;28;20450;-77
2021/04/24 06:36:17;;;;;;;13.35;7.28;;;6.10;99.90;;;;;;4999761;28;20492;-78
2021/04/24 06:38:44;;;;;;;15.57;6.82;;;6.30;99.90;;;;;;4996854;28;20082;-80
2021/04/24 06:41:10;;;;;;;16.48;7.85;;;6.40;99.90;;;;;;4985893;28;20079;-79
2021/04/24 06:43:35;;;;;;;12.85;6.43;;;6.70;99.90;;;;;;4996114;28;20095;-79
2021/04/24 06:46:01;;;;;;;18.60;7.18;;;6.80;99.90;;;;;;5002344;28;20094;-83
2021/04/24 06:48:27;;;;;;;11.23;5.18;;;7.00;99.90;;;;;;4997416;28;20105;-75
2021/04/24 06:50:52;;;;;;;10.63;5.70;;;7.10;99.90;;;;;;5008936;28;20082;-74
2021/04/24 06:53:18;;;;;;;10.05;5.32;;;7.20;99.90;;;;;;4993351;28;20082;-75
2021/04/24 06:55:43;;;;;;;10.77;4.75;;;7.30;99.90;;;;;;4997016;28;20552;-75
2021/04/24 06:58:09;;;;;;;14.43;4.75;;;7.40;99.90;;;;;;4995626;28;20079;-75
2021/04/24 07:00:35;;;;;;;11.43;5.20;;;7.50;99.90;;;;;;4998646;28;20088;-75
2021/04/24 07:03:00;;;;;;;13.48;5.82;;;7.60;99.90;;;;;;5004151;28;20095;-74
2021/04/24 07:05:26;;;;;;;12.25;5.50;;;7.70;99.90;;;;;;4993416;28;20086;-75
2021/04/24 07:07:52;;;;;;;11.50;5.38;;;7.80;99.90;;;;;;4995705;28;20590;-75
2021/04/24 07:10:17;;;;;;;8.07;4.30;;;8.00;99.90;;;;;;4987437;28;20710;-75
2021/04/24 07:12:46;;;;;;;8.85;4.65;;;8.10;99.90;;;;;;5003059;28;20584;-75
2021/04/24 07:15:12;;;;;;;22.67;6.28;;;8.40;99.90;;;;;;5008303;28;20102;-75
2021/04/24 07:17:37;;;;;;;11.98;4.47;;;8.80;99.90;;;;;;4974535;28;20132;-79
2021/04/24 07:20:04;;;;;;;8.40;4.72;;;8.60;99.90;;;;;;4988493;28;20082;-77
2021/04/24 07:22:30;;;;;;;9.25;4.80;;;8.70;99.90;;;;;;5002809;28;20075;-76
2021/04/24 07:24:55;;;;;;;8.93;4.68;;;8.90;99.90;;;;;;5029371;28;20426;-77
2021/04/24 07:27:21;;;;;;;9.70;4.25;;;9.60;99.90;;;;;;5001807;28;20082;-77
2021/04/24 07:29:47;;;;;;;7.63;4.53;;;10.10;99.90;;;;;;5005978;28;20101;-77
2021/04/24 07:32:12;;;;;;;8.18;4.40;;;10.10;99.90;;;;;;4993581;28;20082;-79
2021/04/24 07:34:38;;;;;;;10.00;5.43;;;10.40;99.90;;;;;;4990764;28;20185;-76
2021/04/24 07:37:04;;;;;;;8.82;4.90;;;10.50;99.00;;;;;;4990497;28;20102;-76
2021/04/24 07:39:29;;;;;;;17.70;5.90;;;10.70;99.30;;;;;;5004652;28;20109;-78
2021/04/24 07:41:55;;;;;;;8.00;4.45;;;10.80;98.80;;;;;;4990692;28;20113;-75
2021/04/24 07:44:21;;;;;;;8.88;4.50;;;10.90;98.30;;;;;;4989265;28;20103;-75
2021/04/24 07:46:46;;;;;;;8.65;4.47;;;10.50;97.50;;;;;;5004095;28;20095;-76
2021/04/24 07:49:12;;;;;;;7.32;4.35;;;10.80;99.20;;;;;;5002550;28;20100;-77
2021/04/24 07:51:38;;;;;;;14.60;5.15;;;10.40;98.80;;;;;;4998643;28;20162;-75
2021/04/24 07:54:04;;;;;;;9.80;6.00;;;10.60;99.90;;;;;;5004399;28;20081;-73
2021/04/24 07:56:29;;;;;;;9.82;5.03;;;10.80;98.50;;;;;;4994930;28;20582;-76
2021/04/24 07:58:55;;;;;;;12.00;4.75;;;10.80;97.60;;;;;;4990742;28;20086;-78
2021/04/24 08:01:20;;;;;;;7.97;4.97;;;10.80;98.00;;;;;;4994108;28;20089;-75
2021/04/24 08:03:46;;;;;;;14.13;5.05;;;10.90;99.90;;;;;;5004679;28;20141;-77
2021/04/24 08:06:12;;;;;;;10.93;5.07;;;11.00;99.60;;;;;;4997613;28;20122;-78
2021/04/24 08:08:39;;;;;;;9.25;5.35;;;11.30;99.10;;;;;;4988909;28;20462;-77
2021/04/24 08:11:04;;;;;;;7.20;4.88;;;11.30;98.30;;;;;;4973512;28;20174;-77
2021/04/24 08:13:30;;;;;;;8.15;5.00;;;11.10;97.30;;;;;;4996441;28;20074;-77
2021/04/24 08:15:55;;;;;;;11.10;5.60;;;11.20;98.30;;;;;;5001699;28;20625;-77
2021/04/24 08:18:21;;;;;;;9.90;4.78;;;11.40;96.70;;;;;;4988912;28;20536;-78
2021/04/24 08:20:47;;;;;;;8.57;4.75;;;11.30;96.70;;;;;;4995405;28;20101;-77
2021/04/24 08:23:12;;;;;;;10.13;4.75;;;11.20;96.00;;;;;;5003634;28;20094;-78
2021/04/24 08:25:38;;;;;;;8.77;4.85;;;11.20;96.50;;;;;;4992329;28;20094;-79
2021/04/24 08:28:04;;;;;;;8.73;5.75;;;11.20;96.30;;;;;;4998690;28;20539;-77
2021/04/24 08:30:30;;;;;;;8.93;5.03;;;11.20;94.90;;;;;;4990996;28;20066;-82
2021/04/24 08:32:57;;;;;;;9.88;5.18;;;11.30;95.70;;;;;;5005744;28;20082;-80
2021/04/24 08:35:22;;;;;;;9.18;5.05;;;11.50;96.80;;;;;;5000329;28;20075;-77
2021/04/24 08:37:48;;;;;;;12.05;5.55;;;11.50;95.60;;;;;;4993140;28;20133;-78
2021/04/24 08:40:15;;;;;;;9.80;5.57;;;11.60;95.30;;;;;;4985691;28;20498;-78
2021/04/24 08:42:42;;;;;;;10.55;4.70;;;11.70;95.90;;;;;;4992979;28;20074;-76
2021/04/24 08:45:14;;;;;;;11.95;6.03;;;11.80;93.80;;;;;;4996603;28;20149;-79
2021/04/24 08:47:49;;;;;;;9.23;5.60;;;11.90;93.90;;;;;;4995030;28;20528;-77
2021/04/24 08:50:21;;;;;;;10.20;4.88;;;11.90;93.30;;;;;;4976192;28;20550;-77
2021/04/24 08:52:47;;;;;;;9.48;5.35;;;12.00;91.80;;;;;;5002408;28;20531;-76
2021/04/24 08:55:20;;;;;;;9.18;5.00;;;12.00;92.10;;;;;;5006013;28;20079;-77
2021/04/24 08:57:47;;;;;;;12.80;5.22;;;12.10;91.10;;;;;;4990050;28;20077;-77
2021/04/24 09:00:15;;;;;;;9.93;5.15;;;12.20;91.00;;;;;;4993771;28;20083;-77
2021/04/24 09:02:42;;;;;;;8.25;4.70;;;12.20;92.30;;;;;;4991504;28;20110;-77
2021/04/24 09:05:10;;;;;;;12.13;5.03;;;12.30;90.90;;;;;;4997722;28;20095;-76
2021/04/24 09:07:35;;;;;;;8.77;5.20;;;12.30;87.90;;;;;;4992692;28;20201;-76
2021/04/24 09:10:02;;;;;;;8.05;4.90;;;12.30;89.80;;;;;;5003023;28;20161;-78
2021/04/24 09:12:39;;;;;;;10.05;4.95;;;12.40;91.30;;;;;;4991083;28;20611;-79
2021/04/24 09:15:10;;;;;;;10.02;5.25;;;12.40;87.40;;;;;;4991372;28;20085;-77
2021/04/24 09:17:59;;;;;;;10.40;5.35;;;12.60;88.20;;;;;;4971843;28;20127;-77
2021/04/24 09:20:30;;;;;;;9.20;4.70;;;12.60;86.10;;;;;;4999282;28;20549;-77
2021/04/24 09:23:06;;;;;;;9.95;4.82;;;12.60;78.30;;;;;;5000905;28;20481;-77
2021/04/24 09:25:33;;;;;;;6.53;4.70;;;12.70;67.30;;;;;;5001597;28;20082;-77
2021/04/24 09:27:58;;;;;;;8.05;4.88;;;12.80;68.20;;;;;;4986312;28;20071;-77
2021/04/24 09:30:28;;;;;;;8.32;4.80;;;12.70;66.70;;;;;;4974612;28;20082;-77
2021/04/24 09:32:55;;;;;;;7.13;4.10;;;12.60;66.60;;;;;;4985818;28;20082;-77
2021/04/24 09:35:21;;;;;;;7.85;4.40;;;12.70;66.90;;;;;;4985704;28;20086;-77
2021/04/24 09:38:00;;;;;;;11.77;4.93;;;12.90;66.70;;;;;;4989611;28;20483;-77
2021/04/24 09:40:26;;;;;;;8.07;4.60;;;13.00;65.00;;;;;;4999711;28;20082;-77
2021/04/24 09:43:07;;;;;;;9.63;5.35;;;13.00;66.70;;;;;;5002463;28;20085;-78
2021/04/24 09:45:39;;;;;;;9.77;5.05;;;12.90;67.40;;;;;;5004910;28;20085;-78
2021/04/24 09:48:19;;;;;;;11.38;5.22;;;13.00;68.10;;;;;;5008795;28;20097;-77
2021/04/24 09:50:44;;;;;;;9.98;5.20;;;13.10;68.40;;;;;;5000267;28;20070;-77
2021/04/24 09:53:23;;;;;;;7.63;4.80;;;13.20;67.30;;;;;;4989234;28;20489;-76
2021/04/24 09:55:51;;;;;;;7.95;5.07;;;13.00;65.90;;;;;;4996814;28;20090;-78
2021/04/24 09:58:26;;;;;;;9.85;5.55;;;13.20;66.30;;;;;;5004651;28;20069;-78
2021/04/24 10:00:51;;;;;;;;;;;13.30;69.40;;;;;;4980914;28;20158;-78
2021/04/24 10:03:34;;;;;;;10.75;5.65;;;13.30;66.60;;;;;;5009011;28;20472;-79
2021/04/24 10:06:20;;;;;;;7.97;4.93;;;13.40;65.50;;;;;;4999080;28;20121;-77
2021/04/24 10:08:47;;;;;;;12.18;5.60;;;13.60;65.80;;;;;;4985458;28;20082;-77
2021/04/24 10:11:26;;;;;;;8.60;5.18;;;13.60;64.40;;;;;;4996335;28;20133;-77
2021/04/24 10:13:51;;;;;;;11.98;5.25;;;13.50;64.70;;;;;;4995658;28;20086;-77
2021/04/24 10:16:34;;;;;;;11.23;5.60;;;13.60;68.10;;;;;;5005318;28;20624;-84
2021/04/24 10:19:02;;;;;;;8.52;4.53;;;13.80;65.90;;;;;;4995124;28;20086;-79
2021/04/24 10:21:30;;;;;;;8.02;5.95;;;13.60;64.60;;;;;;5009189;28;20078;-79
2021/04/24 10:23:56;;;;;;;10.32;5.72;;;13.80;64.60;;;;;;4998944;28;20083;-82
2021/04/24 10:26:23;;;;;;;8.77;5.00;;;13.70;65.00;;;;;;5012126;28;20144;-80
2021/04/24 10:28:50;;;;;;;9.75;5.93;;;13.70;63.90;;;;;;4998440;28;20079;-82
2021/04/24 10:31:16;;;;;;;10.00;5.40;;;13.90;65.10;;;;;;4999080;28;20117;-81
2021/04/24 10:33:43;;;;;;;10.55;4.75;;;14.10;63.90;;;;;;4979345;28;20110;-81
2021/04/24 10:36:08;;;;;;;16.00;6.07;;;14.10;65.40;;;;;;4977030;28;20099;-79
2021/04/24 10:38:34;;;;;;;10.80;5.25;;;14.20;68.60;;;;;;5005346;28;20109;-79
2021/04/24 10:41:00;;;;;;;11.90;5.65;;;14.10;64.80;;;;;;5013493;28;20086;-79
2021/04/24 10:43:26;;;;;;;13.52;5.07;;;14.10;62.30;;;;;;5012606;28;20881;-78
2021/04/24 10:45:51;;;;;;;9.75;5.40;;;13.90;63.60;;;;;;5005825;28;20121;-79
2021/04/24 10:48:25;;;;;;;9.63;5.60;;;13.80;62.00;;;;;;5010914;28;20106;-78
2021/04/24 10:50:51;;;;;;;10.48;6.13;;;13.80;60.90;;;;;;4997953;28;20101;-83
2021/04/24 10:53:31;;;;;;;8.18;5.65;;;14.00;63.40;;;;;;5020453;28;20114;-81
2021/04/24 10:55:58;;;;;;;11.20;5.18;;;14.10;61.30;;;;;;5007741;28;20121;-78
2021/04/24 10:58:30;;;;;;;9.13;5.22;;;14.10;61.00;;;;;;5003160;28;20070;-79
2021/04/24 11:01:07;;;;;;;8.38;5.47;;;14.20;61.90;;;;;;4993411;28;20074;-79
2021/04/24 11:03:37;;;;;;;7.03;4.82;;;14.20;60.20;;;;;;5011723;28;20093;-80
2021/04/24 11:06:08;;;;;;;10.52;5.75;;;14.30;61.70;;;;;;5002200;28;20455;-79
2021/04/24 11:08:34;;;;;;;8.10;5.25;;;14.40;60.40;;;;;;5005485;28;20098;-79
2021/04/24 11:11:09;;;;;;;8.52;5.63;;;14.20;59.70;;;;;;4998734;28;20584;-81
2021/04/24 11:13:38;;;;;;;;;;;14.60;59.80;;;;;;4995392;28;20081;-81
2021/04/24 11:16:07;;;;;;;7.43;5.35;;;14.50;57.90;;;;;;4983141;28;20436;-80
2021/04/24 11:18:34;;;;;;;9.75;5.65;;;14.30;57.40;;;;;;5003833;28;20075;-82
2021/04/24 11:21:03;;;;;;;11.90;5.85;;;14.40;57.50;;;;;;4995279;28;20071;-80
2021/04/24 11:23:54;;;;;;;7.60;4.60;;;14.50;57.70;;;;;;5003333;28;20536;-78
2021/04/24 11:26:33;;;;;;;8.57;4.75;;;14.90;60.90;;;;;;5003246;28;20101;-79
2021/04/24 11:29:10;;;;;;;14.40;5.57;;;15.10;61.30;;;;;;4995570;28;20546;-79
2021/04/24 11:31:57;;;;;;;8.95;5.40;;;15.00;65.00;;;;;;4993429;28;20078;-78
2021/04/24 11:34:31;;;;;;;10.25;5.93;;;15.10;62.60;;;;;;5001383;28;20088;-79
2021/04/24 11:37:18;;;;;;;8.27;4.95;;;14.90;56.50;;;;;;4996413;28;20110;-79
2021/04/24 11:40:02;;;;;;;9.20;5.10;;;14.60;56.40;;;;;;4997555;28;20169;-78
2021/04/24 11:42:30;;;;;;;8.40;5.07;;;14.60;55.40;;;;;;4992585;28;20085;-80
2021/04/24 11:45:02;;;;;;;8.82;4.97;;;14.90;58.30;;;;;;5007443;28;20098;-79
2021/04/24 11:47:43;;;;;;;10.07;5.43;;;15.00;58.70;;;;;;4993368;28;20098;-79
2021/04/24 11:50:14;;;;;;;6.85;5.10;;;15.00;58.00;;;;;;5004386;28;20082;-79
2021/04/24 11:52:50;;;;;;;10.38;5.05;;;15.00;56.10;;;;;;4997270;28;20079;-79
2021/04/24 11:55:20;;;;;;;8.90;4.90;;;14.80;55.50;;;;;;4992301;28;20108;-79
2021/04/24 11:57:48;;;;;;;12.18;5.35;;;14.70;54.70;;;;;;4993567;28;20178;-78
2021/04/24 12:00:27;;;;;;;11.13;5.97;;;14.70;56.00;;;;;;4989943;28;20173;-78
2021/04/24 12:02:52;;;;;;;8.65;5.32;;;14.70;55.50;;;;;;5005444;28;20140;-79
2021/04/24 12:05:18;;;;;;;9.05;6.10;;;14.80;56.00;;;;;;5004018;28;20079;-78
2021/04/24 12:07:47;;;;;;;9.30;5.60;;;14.90;55.70;;;;;;5004874;28;20090;-79
2021/04/24 12:10:13;;;;;;;8.70;6.53;;;14.90;54.70;;;;;;5020696;23;20116;-74
2021/04/24 12:12:47;;;;;;;10.05;5.60;;;14.90;54.40;;;;;;5003917;28;20075;-77
2021/04/24 12:15:18;;;;;;;8.90;4.78;;;15.00;53.80;;;;;;4992063;28;20102;-76
2021/04/24 12:18:17;;;;;;;6.50;4.95;;;14.90;55.50;;;;;;5008053;28;20464;-76
2021/04/24 12:20:45;;;;;;;9.15;5.30;;;15.00;53.30;;;;;;4953836;28;20107;-77
2021/04/24 12:23:16;;;;;;;14.13;5.80;;;15.10;54.30;;;;;;4980323;28;20427;-77
2021/04/24 12:25:43;;;;;;;8.90;5.32;;;15.20;54.70;;;;;;5008171;28;20105;-77
2021/04/24 12:28:10;;;;;;;11.00;5.75;;;15.20;54.20;;;;;;4999343;28;20063;-76
2021/04/24 12:30:40;;;;;;;9.63;4.80;;;15.10;54.20;;;;;;4991368;28;20141;-76
2021/04/24 12:33:08;;;;;;;7.93;4.15;;;15.20;50.30;;;;;;4994150;28;20067;-76
2021/04/24 12:35:36;;;;;;;10.23;4.97;;;15.20;50.70;;;;;;4987529;28;20086;-77
2021/04/24 12:38:16;;;;;;;12.40;4.65;;;15.20;49.40;;;;;;4997610;28;20079;-79
2021/04/24 12:40:48;;;;;;;6.20;4.43;;;15.10;50.30;;;;;;4987518;28;20114;-77
2021/04/24 12:43:15;;;;;;;6.40;4.22;;;15.30;49.30;;;;;;4999388;28;20087;-77
2021/04/24 12:45:44;;;;;;;10.05;4.55;;;15.30;48.10;;;;;;4972553;28;20117;-76
2021/04/24 12:48:32;;;;;;;10.98;4.85;;;15.20;49.70;;;;;;4992234;28;20067;-76
2021/04/24 12:50:59;;;;;;;5.85;3.78;;;15.20;47.80;;;;;;5008706;28;20098;-76
2021/04/24 12:53:33;;;;;;;7.00;4.07;;;15.30;47.10;;;;;;4992440;28;20071;-76
2021/04/24 12:56:02;;;;;;;;;;;15.40;47.50;;;;;;4992201;28;20441;-76